sensor_id;sensor_type;location;lat;lon;timestamp;P1;durP1;ratioP1;P2;durP2;ratioP2
23608;SDS011;11982;50.810;4.442;2022-10-04T00:01:31;27.23;;;14.60;;
23608;SDS011;11982;50.810;4.442;2022-10-04T00:04:22;29.08;;;15.20;;
23608;SDS011;11982;50.810;4.442;2022-10-04T00:07:06;21.90;;;14.23;;
23608;SDS011;11982;50.810;4.442;2022-10-04T00:09:45;28.13;;;15.15;;
23608;SDS011;11982;50.810;4.442;2022-10-04T00:15:21;25.88;;;13.55;;
23608;SDS011;11982;50.810;4.442;2022-10-04T00:23:24;34.08;;;14.10;;
23608;SDS011;11982;50.810;4.442;2022-10-04T00:26:12;25.95;;;14.20;;
23608;SDS011;11982;50.810;4.442;2022-10-04T00:28:47;29.50;;;14.85;;
23608;SDS011;11982;50.810;4.442;2022-10-04T00:33:55;24.50;;;12.77;;
23608;SDS011;11982;50.810;4.442;2022-10-04T00:44:18;29.75;;;14.10;;
23608;SDS011;11982;50.810;4.442;2022-10-04T00:46:58;32.78;;;14.20;;
23608;SDS011;11982;50.810;4.442;2022-10-04T00:49:28;26.52;;;14.43;;
23608;SDS011;11982;50.810;4.442;2022-10-04T00:52:22;26.63;;;13.38;;
23608;SDS011;11982;50.810;4.442;2022-10-04T00:54:54;27.83;;;12.38;;
23608;SDS011;11982;50.810;4.442;2022-10-04T00:57:28;28.70;;;12.98;;
23608;SDS011;11982;50.810;4.442;2022-10-04T01:00:03;31.42;;;12.35;;
23608;SDS011;11982;50.810;4.442;2022-10-04T01:02:35;27.40;;;13.23;;
23608;SDS011;11982;50.810;4.442;2022-10-04T01:05:16;27.20;;;13.90;;
23608;SDS011;11982;50.810;4.442;2022-10-04T01:07:51;24.75;;;13.07;;
23608;SDS011;11982;50.810;4.442;2022-10-04T01:10:28;29.33;;;13.60;;
23608;SDS011;11982;50.810;4.442;2022-10-04T01:13:17;28.65;;;13.13;;
23608;SDS011;11982;50.810;4.442;2022-10-04T01:16:08;28.20;;;13.57;;
23608;SDS011;11982;50.810;4.442;2022-10-04T01:18:35;34.67;;;14.65;;
23608;SDS011;11982;50.810;4.442;2022-10-04T01:21:03;27.13;;;14.23;;
23608;SDS011;11982;50.810;4.442;2022-10-04T01:23:51;26.60;;;13.45;;
23608;SDS011;11982;50.810;4.442;2022-10-04T01:29:18;33.70;;;14.48;;
23608;SDS011;11982;50.810;4.442;2022-10-04T01:31:52;34.13;;;14.27;;
23608;SDS011;11982;50.810;4.442;2022-10-04T01:34:23;31.65;;;14.90;;
23608;SDS011;11982;50.810;4.442;2022-10-04T01:36:52;30.33;;;13.80;;
23608;SDS011;11982;50.810;4.442;2022-10-04T01:39:23;30.55;;;14.07;;
23608;SDS011;11982;50.810;4.442;2022-10-04T01:44:43;23.20;;;12.88;;
23608;SDS011;11982;50.810;4.442;2022-10-04T01:47:37;28.95;;;13.30;;
23608;SDS011;11982;50.810;4.442;2022-10-04T01:50:10;32.63;;;14.50;;
23608;SDS011;11982;50.810;4.442;2022-10-04T01:52:46;28.38;;;13.85;;
23608;SDS011;11982;50.810;4.442;2022-10-04T01:55:16;31.92;;;13.63;;
23608;SDS011;11982;50.810;4.442;2022-10-04T01:57:49;31.65;;;13.45;;
23608;SDS011;11982;50.810;4.442;2022-10-04T02:00:22;28.75;;;13.60;;
23608;SDS011;11982;50.810;4.442;2022-10-04T02:03:02;31.48;;;14.63;;
23608;SDS011;11982;50.810;4.442;2022-10-04T02:05:37;22.80;;;13.50;;
23608;SDS011;11982;50.810;4.442;2022-10-04T02:08:07;33.25;;;13.63;;
23608;SDS011;11982;50.810;4.442;2022-10-04T02:10:36;30.70;;;13.50;;
23608;SDS011;11982;50.810;4.442;2022-10-04T02:13:04;26.55;;;13.70;;
23608;SDS011;11982;50.810;4.442;2022-10-04T02:15:34;30.17;;;13.57;;
23608;SDS011;11982;50.810;4.442;2022-10-04T02:18:03;29.95;;;14.13;;
23608;SDS011;11982;50.810;4.442;2022-10-04T02:20:41;34.55;;;14.98;;
23608;SDS011;11982;50.810;4.442;2022-10-04T02:23:08;30.85;;;14.85;;
23608;SDS011;11982;50.810;4.442;2022-10-04T02:25:35;28.40;;;14.55;;
23608;SDS011;11982;50.810;4.442;2022-10-04T02:28:02;31.65;;;14.70;;
23608;SDS011;11982;50.810;4.442;2022-10-04T02:30:35;35.97;;;15.82;;
23608;SDS011;11982;50.810;4.442;2022-10-04T02:33:02;34.40;;;16.65;;
23608;SDS011;11982;50.810;4.442;2022-10-04T02:35:30;32.90;;;17.08;;
23608;SDS011;11982;50.810;4.442;2022-10-04T02:38:08;40.78;;;18.48;;
23608;SDS011;11982;50.810;4.442;2022-10-04T02:40:38;37.83;;;18.77;;
23608;SDS011;11982;50.810;4.442;2022-10-04T02:43:16;48.42;;;20.95;;
23608;SDS011;11982;50.810;4.442;2022-10-04T02:46:06;40.33;;;19.83;;
23608;SDS011;11982;50.810;4.442;2022-10-04T02:48:51;45.00;;;21.15;;
23608;SDS011;11982;50.810;4.442;2022-10-04T02:56:54;52.15;;;21.95;;
23608;SDS011;11982;50.810;4.442;2022-10-04T02:59:21;45.88;;;21.70;;
23608;SDS011;11982;50.810;4.442;2022-10-04T03:01:52;48.33;;;21.77;;
23608;SDS011;11982;50.810;4.442;2022-10-04T03:04:24;40.80;;;21.00;;
23608;SDS011;11982;50.810;4.442;2022-10-04T03:07:04;47.58;;;21.35;;
23608;SDS011;11982;50.810;4.442;2022-10-04T03:09:32;45.88;;;22.25;;
23608;SDS011;11982;50.810;4.442;2022-10-04T03:12:00;44.50;;;21.98;;
23608;SDS011;11982;50.810;4.442;2022-10-04T03:14:27;48.17;;;21.52;;
23608;SDS011;11982;50.810;4.442;2022-10-04T03:16:54;54.80;;;21.83;;
23608;SDS011;11982;50.810;4.442;2022-10-04T03:19:24;41.42;;;20.90;;
23608;SDS011;11982;50.810;4.442;2022-10-04T03:21:53;47.72;;;23.63;;
23608;SDS011;11982;50.810;4.442;2022-10-04T03:24:22;48.15;;;22.77;;
23608;SDS011;11982;50.810;4.442;2022-10-04T03:26:53;48.90;;;23.98;;
23608;SDS011;11982;50.810;4.442;2022-10-04T03:29:23;58.78;;;23.88;;
23608;SDS011;11982;50.810;4.442;2022-10-04T03:31:51;54.95;;;23.50;;
23608;SDS011;11982;50.810;4.442;2022-10-04T03:34:26;51.13;;;23.95;;
23608;SDS011;11982;50.810;4.442;2022-10-04T03:36:57;45.42;;;22.30;;
23608;SDS011;11982;50.810;4.442;2022-10-04T03:39:31;42.83;;;22.67;;
23608;SDS011;11982;50.810;4.442;2022-10-04T03:42:02;47.30;;;23.70;;
23608;SDS011;11982;50.810;4.442;2022-10-04T03:44:31;48.75;;;23.38;;
23608;SDS011;11982;50.810;4.442;2022-10-04T03:46:58;51.45;;;24.48;;
23608;SDS011;11982;50.810;4.442;2022-10-04T03:49:32;57.10;;;24.90;;
23608;SDS011;11982;50.810;4.442;2022-10-04T03:52:01;51.47;;;24.15;;
23608;SDS011;11982;50.810;4.442;2022-10-04T03:54:28;63.60;;;25.13;;
23608;SDS011;11982;50.810;4.442;2022-10-04T03:56:54;45.30;;;24.00;;
23608;SDS011;11982;50.810;4.442;2022-10-04T03:59:22;41.55;;;23.20;;
23608;SDS011;11982;50.810;4.442;2022-10-04T04:04:41;49.90;;;23.75;;
23608;SDS011;11982;50.810;4.442;2022-10-04T04:07:33;52.22;;;24.30;;
23608;SDS011;11982;50.810;4.442;2022-10-04T04:10:02;46.13;;;23.27;;
23608;SDS011;11982;50.810;4.442;2022-10-04T04:12:37;42.55;;;22.08;;
23608;SDS011;11982;50.810;4.442;2022-10-04T04:15:09;46.05;;;23.15;;
23608;SDS011;11982;50.810;4.442;2022-10-04T04:17:46;57.47;;;24.92;;
23608;SDS011;11982;50.810;4.442;2022-10-04T04:22:49;49.80;;;23.83;;
23608;SDS011;11982;50.810;4.442;2022-10-04T04:25:21;48.45;;;23.30;;
23608;SDS011;11982;50.810;4.442;2022-10-04T04:27:49;50.20;;;23.75;;
23608;SDS011;11982;50.810;4.442;2022-10-04T04:30:20;58.60;;;24.65;;
23608;SDS011;11982;50.810;4.442;2022-10-04T04:32:49;48.00;;;23.88;;
23608;SDS011;11982;50.810;4.442;2022-10-04T04:35:29;56.60;;;23.83;;
23608;SDS011;11982;50.810;4.442;2022-10-04T04:38:03;53.78;;;24.25;;
23608;SDS011;11982;50.810;4.442;2022-10-04T04:40:43;45.40;;;21.35;;
23608;SDS011;11982;50.810;4.442;2022-10-04T04:43:11;48.47;;;21.80;;
23608;SDS011;11982;50.810;4.442;2022-10-04T04:45:43;42.10;;;20.88;;
23608;SDS011;11982;50.810;4.442;2022-10-04T04:48:14;43.70;;;22.58;;
23608;SDS011;11982;50.810;4.442;2022-10-04T04:50:41;48.15;;;22.70;;
23608;SDS011;11982;50.810;4.442;2022-10-04T04:53:16;48.08;;;22.30;;
23608;SDS011;11982;50.810;4.442;2022-10-04T04:56:04;47.50;;;20.60;;
23608;SDS011;11982;50.810;4.442;2022-10-04T04:58:34;46.28;;;20.30;;
23608;SDS011;11982;50.810;4.442;2022-10-04T05:03:37;34.80;;;18.85;;
23608;SDS011;11982;50.810;4.442;2022-10-04T05:06:03;40.90;;;19.27;;
23608;SDS011;11982;50.810;4.442;2022-10-04T05:08:31;41.58;;;19.88;;
23608;SDS011;11982;50.810;4.442;2022-10-04T05:13:34;101.55;;;51.25;;
23608;SDS011;11982;50.810;4.442;2022-10-04T05:16:04;93.47;;;47.15;;
23608;SDS011;11982;50.810;4.442;2022-10-04T05:18:33;83.28;;;45.67;;
23608;SDS011;11982;50.810;4.442;2022-10-04T05:21:06;146.70;;;75.07;;
23608;SDS011;11982;50.810;4.442;2022-10-04T05:23:36;120.35;;;52.60;;
23608;SDS011;11982;50.810;4.442;2022-10-04T05:26:02;114.47;;;44.67;;
23608;SDS011;11982;50.810;4.442;2022-10-04T05:28:33;186.50;;;70.30;;
23608;SDS011;11982;50.810;4.442;2022-10-04T05:33:50;368.30;;;109.65;;
23608;SDS011;11982;50.810;4.442;2022-10-04T05:36:36;426.23;;;128.27;;
23608;SDS011;11982;50.810;4.442;2022-10-04T05:44:34;620.00;;;189.98;;
23608;SDS011;11982;50.810;4.442;2022-10-04T05:47:04;266.05;;;83.28;;
23608;SDS011;11982;50.810;4.442;2022-10-04T05:49:35;133.27;;;49.30;;
23608;SDS011;11982;50.810;4.442;2022-10-04T05:55:13;304.25;;;128.35;;
23608;SDS011;11982;50.810;4.442;2022-10-04T06:00:13;212.43;;;100.75;;
23608;SDS011;11982;50.810;4.442;2022-10-04T06:05:57;347.83;;;111.20;;
23608;SDS011;11982;50.810;4.442;2022-10-04T06:14:08;95.45;;;39.63;;
23608;SDS011;11982;50.810;4.442;2022-10-04T06:22:32;107.60;;;27.25;;
23608;SDS011;11982;50.810;4.442;2022-10-04T06:27:37;214.68;;;84.13;;
23608;SDS011;11982;50.810;4.442;2022-10-04T06:30:14;139.05;;;54.25;;
23608;SDS011;11982;50.810;4.442;2022-10-04T06:38:58;64.72;;;21.70;;
23608;SDS011;11982;50.810;4.442;2022-10-04T06:41:47;56.88;;;20.58;;
23608;SDS011;11982;50.810;4.442;2022-10-04T07:00:33;39.90;;;18.77;;
23608;SDS011;11982;50.810;4.442;2022-10-04T07:04:09;45.92;;;17.73;;
23608;SDS011;11982;50.810;4.442;2022-10-04T07:06:15;63.78;;;17.80;;
23608;SDS011;11982;50.810;4.442;2022-10-04T07:08:51;47.42;;;16.80;;
23608;SDS011;11982;50.810;4.442;2022-10-04T07:11:27;36.95;;;14.43;;
23608;SDS011;11982;50.810;4.442;2022-10-04T07:14:03;46.78;;;14.90;;
23608;SDS011;11982;50.810;4.442;2022-10-04T07:16:36;37.13;;;14.32;;
23608;SDS011;11982;50.810;4.442;2022-10-04T07:19:55;34.63;;;15.20;;
23608;SDS011;11982;50.810;4.442;2022-10-04T07:30:40;33.00;;;13.93;;
23608;SDS011;11982;50.810;4.442;2022-10-04T07:33:15;36.05;;;15.23;;
23608;SDS011;11982;50.810;4.442;2022-10-04T07:35:46;44.58;;;14.52;;
23608;SDS011;11982;50.810;4.442;2022-10-04T07:38:25;31.77;;;14.45;;
23608;SDS011;11982;50.810;4.442;2022-10-04T07:40:58;31.73;;;13.77;;
23608;SDS011;11982;50.810;4.442;2022-10-04T07:43:28;38.25;;;15.35;;
23608;SDS011;11982;50.810;4.442;2022-10-04T07:46:09;29.40;;;13.88;;
23608;SDS011;11982;50.810;4.442;2022-10-04T07:48:44;31.88;;;13.52;;
23608;SDS011;11982;50.810;4.442;2022-10-04T07:52:01;28.08;;;14.55;;
23608;SDS011;11982;50.810;4.442;2022-10-04T07:54:11;36.53;;;13.98;;
23608;SDS011;11982;50.810;4.442;2022-10-04T07:56:50;29.63;;;14.45;;
23608;SDS011;11982;50.810;4.442;2022-10-04T08:10:07;30.02;;;15.90;;
23608;SDS011;11982;50.810;4.442;2022-10-04T08:12:56;32.83;;;13.80;;
23608;SDS011;11982;50.810;4.442;2022-10-04T08:15:39;36.97;;;14.43;;
23608;SDS011;11982;50.810;4.442;2022-10-04T08:21:07;39.80;;;13.23;;
23608;SDS011;11982;50.810;4.442;2022-10-04T08:26:32;33.03;;;12.85;;
23608;SDS011;11982;50.810;4.442;2022-10-04T08:29:32;24.27;;;12.30;;
23608;SDS011;11982;50.810;4.442;2022-10-04T08:37:54;23.33;;;11.60;;
23608;SDS011;11982;50.810;4.442;2022-10-04T08:51:25;32.70;;;12.35;;
23608;SDS011;11982;50.810;4.442;2022-10-04T08:54:37;25.05;;;11.88;;
23608;SDS011;11982;50.810;4.442;2022-10-04T09:07:55;188.88;;;23.25;;
23608;SDS011;11982;50.810;4.442;2022-10-04T09:16:25;40.53;;;11.38;;
23608;SDS011;11982;50.810;4.442;2022-10-04T09:28:08;33.63;;;10.00;;
23608;SDS011;11982;50.810;4.442;2022-10-04T09:33:29;26.20;;;9.52;;
23608;SDS011;11982;50.810;4.442;2022-10-04T09:41:12;16.65;;;8.75;;
23608;SDS011;11982;50.810;4.442;2022-10-04T09:46:50;18.63;;;8.50;;
23608;SDS011;11982;50.810;4.442;2022-10-04T09:50:24;22.27;;;8.57;;
23608;SDS011;11982;50.810;4.442;2022-10-04T09:53:04;17.15;;;8.63;;
23608;SDS011;11982;50.810;4.442;2022-10-04T10:04:03;21.42;;;8.35;;
23608;SDS011;11982;50.810;4.442;2022-10-04T10:15:23;17.23;;;7.60;;
23608;SDS011;11982;50.810;4.442;2022-10-04T10:23:24;19.73;;;7.22;;
23608;SDS011;11982;50.810;4.442;2022-10-04T10:37:09;13.55;;;6.65;;
23608;SDS011;11982;50.810;4.442;2022-10-04T10:47:54;14.05;;;6.50;;
23608;SDS011;11982;50.810;4.442;2022-10-04T10:50:33;17.25;;;6.60;;
23608;SDS011;11982;50.810;4.442;2022-10-04T10:53:37;14.70;;;6.50;;
23608;SDS011;11982;50.810;4.442;2022-10-04T10:56:25;12.15;;;6.35;;
23608;SDS011;11982;50.810;4.442;2022-10-04T11:07:42;11.55;;;5.68;;
23608;SDS011;11982;50.810;4.442;2022-10-04T11:21:42;13.32;;;5.18;;
23608;SDS011;11982;50.810;4.442;2022-10-04T11:29:46;10.43;;;5.03;;
23608;SDS011;11982;50.810;4.442;2022-10-04T11:41:13;216.20;;;22.27;;
23608;SDS011;11982;50.810;4.442;2022-10-04T11:43:54;102.80;;;13.65;;
23608;SDS011;11982;50.810;4.442;2022-10-04T11:55:09;9.70;;;4.10;;
23608;SDS011;11982;50.810;4.442;2022-10-04T12:11:39;32.08;;;5.85;;
23608;SDS011;11982;50.810;4.442;2022-10-04T12:20:20;10.80;;;4.03;;
23608;SDS011;11982;50.810;4.442;2022-10-04T12:25:50;8.95;;;4.35;;
23608;SDS011;11982;50.810;4.442;2022-10-04T12:28:34;13.57;;;4.95;;
23608;SDS011;11982;50.810;4.442;2022-10-04T12:31:32;14.75;;;4.85;;
23608;SDS011;11982;50.810;4.442;2022-10-04T12:39:51;11.98;;;4.97;;
23608;SDS011;11982;50.810;4.442;2022-10-04T12:53:12;17.23;;;4.80;;
23608;SDS011;11982;50.810;4.442;2022-10-04T13:02:27;11.02;;;4.68;;
23608;SDS011;11982;50.810;4.442;2022-10-04T13:16:35;11.85;;;4.97;;
23608;SDS011;11982;50.810;4.442;2022-10-04T13:24:24;8.60;;;4.47;;
23608;SDS011;11982;50.810;4.442;2022-10-04T13:27:30;11.57;;;4.15;;
23608;SDS011;11982;50.810;4.442;2022-10-04T13:32:37;9.45;;;4.10;;
23608;SDS011;11982;50.810;4.442;2022-10-04T13:35:17;11.70;;;4.47;;
23608;SDS011;11982;50.810;4.442;2022-10-04T13:38:14;11.02;;;4.25;;
23608;SDS011;11982;50.810;4.442;2022-10-04T13:41:17;8.95;;;3.60;;
23608;SDS011;11982;50.810;4.442;2022-10-04T13:44:09;9.52;;;4.05;;
23608;SDS011;11982;50.810;4.442;2022-10-04T13:55:32;10.27;;;4.23;;
23608;SDS011;11982;50.810;4.442;2022-10-04T14:12:29;5.57;;;4.18;;
23608;SDS011;11982;50.810;4.442;2022-10-04T14:48:37;11.15;;;4.50;;
23608;SDS011;11982;50.810;4.442;2022-10-04T14:56:57;11.23;;;4.55;;
23608;SDS011;11982;50.810;4.442;2022-10-04T15:07:17;9.27;;;4.15;;
23608;SDS011;11982;50.810;4.442;2022-10-04T15:12:44;6.93;;;3.63;;
23608;SDS011;11982;50.810;4.442;2022-10-04T15:15:34;10.43;;;4.18;;
23608;SDS011;11982;50.810;4.442;2022-10-04T15:23:50;9.30;;;4.35;;
23608;SDS011;11982;50.810;4.442;2022-10-04T15:31:34;6.78;;;4.38;;
23608;SDS011;11982;50.810;4.442;2022-10-04T15:44:32;8.90;;;4.75;;
23608;SDS011;11982;50.810;4.442;2022-10-04T15:56:04;7.57;;;4.82;;
23608;SDS011;11982;50.810;4.442;2022-10-04T16:08:01;10.15;;;4.90;;
23608;SDS011;11982;50.810;4.442;2022-10-04T16:13:41;12.52;;;4.70;;
23608;SDS011;11982;50.810;4.442;2022-10-04T16:16:20;7.45;;;4.35;;
23608;SDS011;11982;50.810;4.442;2022-10-04T16:22:25;6.15;;;4.43;;
23608;SDS011;11982;50.810;4.442;2022-10-04T16:24:51;9.18;;;4.70;;
23608;SDS011;11982;50.810;4.442;2022-10-04T16:30:30;14.05;;;5.53;;
23608;SDS011;11982;50.810;4.442;2022-10-04T16:36:04;11.40;;;5.57;;
23608;SDS011;11982;50.810;4.442;2022-10-04T16:38:35;10.57;;;5.40;;
23608;SDS011;11982;50.810;4.442;2022-10-04T16:44:00;11.68;;;7.25;;
23608;SDS011;11982;50.810;4.442;2022-10-04T16:46:34;12.57;;;5.72;;
23608;SDS011;11982;50.810;4.442;2022-10-04T16:55:00;11.13;;;6.28;;
23608;SDS011;11982;50.810;4.442;2022-10-04T17:00:49;14.85;;;8.23;;
23608;SDS011;11982;50.810;4.442;2022-10-04T17:06:52;11.68;;;6.43;;
23608;SDS011;11982;50.810;4.442;2022-10-04T17:28:54;19.05;;;9.55;;
23608;SDS011;11982;50.810;4.442;2022-10-04T17:31:34;14.07;;;9.40;;
23608;SDS011;11982;50.810;4.442;2022-10-04T17:37:19;113.80;;;62.65;;
23608;SDS011;11982;50.810;4.442;2022-10-04T17:48:26;38.95;;;20.45;;
23608;SDS011;11982;50.810;4.442;2022-10-04T17:54:18;23.40;;;13.75;;
23608;SDS011;11982;50.810;4.442;2022-10-04T18:05:28;35.17;;;21.45;;
23608;SDS011;11982;50.810;4.442;2022-10-04T18:10:58;66.22;;;35.05;;
23608;SDS011;11982;50.810;4.442;2022-10-04T18:16:14;54.05;;;32.20;;
23608;SDS011;11982;50.810;4.442;2022-10-04T18:18:46;25.48;;;15.93;;
23608;SDS011;11982;50.810;4.442;2022-10-04T18:21:20;28.63;;;17.33;;
23608;SDS011;11982;50.810;4.442;2022-10-04T18:23:51;25.83;;;16.27;;
23608;SDS011;11982;50.810;4.442;2022-10-04T18:26:27;25.58;;;19.10;;
23608;SDS011;11982;50.810;4.442;2022-10-04T18:28:56;28.13;;;19.50;;
23608;SDS011;11982;50.810;4.442;2022-10-04T18:33:50;24.80;;;14.55;;
23608;SDS011;11982;50.810;4.442;2022-10-04T18:36:27;27.08;;;17.52;;
23608;SDS011;11982;50.810;4.442;2022-10-04T18:41:35;29.00;;;14.55;;
23608;SDS011;11982;50.810;4.442;2022-10-04T18:44:15;24.65;;;15.73;;
23608;SDS011;11982;50.810;4.442;2022-10-04T18:46:44;28.17;;;14.13;;
23608;SDS011;11982;50.810;4.442;2022-10-04T18:49:30;23.02;;;15.43;;
23608;SDS011;11982;50.810;4.442;2022-10-04T18:52:21;44.97;;;30.40;;
23608;SDS011;11982;50.810;4.442;2022-10-04T18:58:31;27.77;;;20.77;;
23608;SDS011;11982;50.810;4.442;2022-10-04T19:10:18;18.70;;;11.32;;
23608;SDS011;11982;50.810;4.442;2022-10-04T19:13:01;28.88;;;15.13;;
23608;SDS011;11982;50.810;4.442;2022-10-04T19:27:04;17.40;;;9.73;;
23608;SDS011;11982;50.810;4.442;2022-10-04T19:29:41;16.75;;;10.20;;
23608;SDS011;11982;50.810;4.442;2022-10-04T19:32:46;17.48;;;10.40;;
23608;SDS011;11982;50.810;4.442;2022-10-04T19:35:49;25.25;;;12.93;;
23608;SDS011;11982;50.810;4.442;2022-10-04T19:41:12;14.13;;;9.63;;
23608;SDS011;11982;50.810;4.442;2022-10-04T20:00:52;21.75;;;9.88;;
23608;SDS011;11982;50.810;4.442;2022-10-04T20:03:18;18.95;;;10.27;;
23608;SDS011;11982;50.810;4.442;2022-10-04T20:05:45;15.30;;;9.10;;
23608;SDS011;11982;50.810;4.442;2022-10-04T20:11:19;15.80;;;9.98;;
23608;SDS011;11982;50.810;4.442;2022-10-04T20:17:00;20.73;;;10.10;;
23608;SDS011;11982;50.810;4.442;2022-10-04T20:21:55;15.55;;;9.50;;
23608;SDS011;11982;50.810;4.442;2022-10-04T20:27:04;17.33;;;9.48;;
23608;SDS011;11982;50.810;4.442;2022-10-04T20:30:00;11.55;;;8.93;;
23608;SDS011;11982;50.810;4.442;2022-10-04T20:34:55;19.55;;;9.80;;
23608;SDS011;11982;50.810;4.442;2022-10-04T20:40:09;15.48;;;9.57;;
23608;SDS011;11982;50.810;4.442;2022-10-04T20:48:12;16.05;;;8.10;;
23608;SDS011;11982;50.810;4.442;2022-10-04T20:50:43;13.43;;;9.13;;
23608;SDS011;11982;50.810;4.442;2022-10-04T20:55:41;17.45;;;8.40;;
23608;SDS011;11982;50.810;4.442;2022-10-04T20:58:26;14.80;;;8.55;;
23608;SDS011;11982;50.810;4.442;2022-10-04T21:00:54;16.63;;;8.52;;
23608;SDS011;11982;50.810;4.442;2022-10-04T21:03:21;14.70;;;8.75;;
23608;SDS011;11982;50.810;4.442;2022-10-04T21:06:00;12.35;;;8.25;;
23608;SDS011;11982;50.810;4.442;2022-10-04T21:08:28;12.38;;;8.00;;
23608;SDS011;11982;50.810;4.442;2022-10-04T21:11:01;15.82;;;8.23;;
23608;SDS011;11982;50.810;4.442;2022-10-04T21:13:47;12.75;;;8.30;;
23608;SDS011;11982;50.810;4.442;2022-10-04T21:24:42;11.77;;;7.90;;
23608;SDS011;11982;50.810;4.442;2022-10-04T21:30:05;18.08;;;8.00;;
23608;SDS011;11982;50.810;4.442;2022-10-04T21:35:05;13.57;;;8.43;;
23608;SDS011;11982;50.810;4.442;2022-10-04T21:37:32;12.48;;;8.60;;
23608;SDS011;11982;50.810;4.442;2022-10-04T21:39:58;15.38;;;9.15;;
23608;SDS011;11982;50.810;4.442;2022-10-04T21:42:24;19.23;;;9.70;;
23608;SDS011;11982;50.810;4.442;2022-10-04T21:44:50;16.20;;;9.25;;
23608;SDS011;11982;50.810;4.442;2022-10-04T21:47:16;12.77;;;9.30;;
23608;SDS011;11982;50.810;4.442;2022-10-04T21:49:42;16.70;;;8.55;;
23608;SDS011;11982;50.810;4.442;2022-10-04T21:52:07;13.63;;;8.57;;
23608;SDS011;11982;50.810;4.442;2022-10-04T21:54:33;15.40;;;8.50;;
23608;SDS011;11982;50.810;4.442;2022-10-04T21:56:58;12.57;;;8.15;;
23608;SDS011;11982;50.810;4.442;2022-10-04T21:59:24;14.05;;;8.18;;
23608;SDS011;11982;50.810;4.442;2022-10-04T22:01:50;16.42;;;8.52;;
23608;SDS011;11982;50.810;4.442;2022-10-04T22:04:16;13.70;;;8.70;;
23608;SDS011;11982;50.810;4.442;2022-10-04T22:06:42;12.73;;;8.50;;
23608;SDS011;11982;50.810;4.442;2022-10-04T22:09:08;14.25;;;9.23;;
23608;SDS011;11982;50.810;4.442;2022-10-04T22:11:34;13.77;;;8.60;;
23608;SDS011;11982;50.810;4.442;2022-10-04T22:14:00;14.23;;;8.98;;
23608;SDS011;11982;50.810;4.442;2022-10-04T22:16:26;15.60;;;8.93;;
23608;SDS011;11982;50.810;4.442;2022-10-04T22:18:51;12.15;;;7.85;;
23608;SDS011;11982;50.810;4.442;2022-10-04T22:21:17;12.07;;;8.18;;
23608;SDS011;11982;50.810;4.442;2022-10-04T22:23:42;13.88;;;8.90;;
23608;SDS011;11982;50.810;4.442;2022-10-04T22:26:10;14.13;;;8.73;;
23608;SDS011;11982;50.810;4.442;2022-10-04T22:28:42;14.65;;;9.13;;
23608;SDS011;11982;50.810;4.442;2022-10-04T22:31:16;13.00;;;8.02;;
23608;SDS011;11982;50.810;4.442;2022-10-04T22:33:53;12.20;;;7.88;;
23608;SDS011;11982;50.810;4.442;2022-10-04T22:36:23;12.52;;;8.45;;
23608;SDS011;11982;50.810;4.442;2022-10-04T22:38:57;17.30;;;8.18;;
23608;SDS011;11982;50.810;4.442;2022-10-04T22:41:28;15.45;;;8.80;;
23608;SDS011;11982;50.810;4.442;2022-10-04T22:43:57;15.98;;;8.38;;
23608;SDS011;11982;50.810;4.442;2022-10-04T22:46:31;14.73;;;8.88;;
23608;SDS011;11982;50.810;4.442;2022-10-04T22:49:00;14.48;;;8.70;;
23608;SDS011;11982;50.810;4.442;2022-10-04T22:51:27;13.95;;;8.60;;
23608;SDS011;11982;50.810;4.442;2022-10-04T22:53:53;11.07;;;7.65;;
23608;SDS011;11982;50.810;4.442;2022-10-04T22:56:18;12.60;;;8.43;;
23608;SDS011;11982;50.810;4.442;2022-10-04T22:58:44;13.27;;;8.73;;
23608;SDS011;11982;50.810;4.442;2022-10-04T23:01:19;13.95;;;8.85;;
23608;SDS011;11982;50.810;4.442;2022-10-04T23:03:45;11.05;;;7.75;;
23608;SDS011;11982;50.810;4.442;2022-10-04T23:06:12;15.05;;;8.55;;
23608;SDS011;11982;50.810;4.442;2022-10-04T23:08:39;10.68;;;7.97;;
23608;SDS011;11982;50.810;4.442;2022-10-04T23:11:05;12.18;;;7.95;;
23608;SDS011;11982;50.810;4.442;2022-10-04T23:13:32;13.38;;;8.55;;
23608;SDS011;11982;50.810;4.442;2022-10-04T23:15:58;12.98;;;7.82;;
23608;SDS011;11982;50.810;4.442;2022-10-04T23:18:30;11.68;;;8.02;;
23608;SDS011;11982;50.810;4.442;2022-10-04T23:20:58;12.63;;;8.10;;
23608;SDS011;11982;50.810;4.442;2022-10-04T23:23:25;18.45;;;8.57;;
23608;SDS011;11982;50.810;4.442;2022-10-04T23:25:54;13.23;;;7.90;;
23608;SDS011;11982;50.810;4.442;2022-10-04T23:28:20;14.55;;;8.30;;
23608;SDS011;11982;50.810;4.442;2022-10-04T23:30:47;10.02;;;7.88;;
23608;SDS011;11982;50.810;4.442;2022-10-04T23:33:26;10.40;;;7.22;;
23608;SDS011;11982;50.810;4.442;2022-10-04T23:35:51;12.35;;;7.70;;
23608;SDS011;11982;50.810;4.442;2022-10-04T23:38:19;16.83;;;8.18;;
23608;SDS011;11982;50.810;4.442;2022-10-04T23:40:46;13.75;;;7.45;;
23608;SDS011;11982;50.810;4.442;2022-10-04T23:43:13;14.73;;;7.60;;
23608;SDS011;11982;50.810;4.442;2022-10-04T23:45:42;13.15;;;7.55;;
23608;SDS011;11982;50.810;4.442;2022-10-04T23:48:08;10.57;;;7.90;;
23608;SDS011;11982;50.810;4.442;2022-10-04T23:50:40;14.80;;;8.25;;
23608;SDS011;11982;50.810;4.442;2022-10-04T23:53:10;17.25;;;7.97;;
23608;SDS011;11982;50.810;4.442;2022-10-04T23:55:43;12.60;;;7.25;;
23608;SDS011;11982;50.810;4.442;2022-10-04T23:58:13;12.00;;;7.20;;
